createdAt,value
2023-02-24T00:04:22.009Z,100.00
2023-02-24T00:09:27.401Z,100.00
2023-02-24T00:14:30.682Z,100.00
2023-02-24T00:19:35.252Z,100.00
2023-02-24T00:24:37.306Z,100.00
2023-02-24T00:29:40.796Z,100.00
2023-02-24T00:34:43.233Z,100.00
2023-02-24T00:39:45.018Z,100.00
2023-02-24T00:44:47.845Z,100.00
2023-02-24T00:49:50.374Z,100.00
2023-02-24T00:54:52.017Z,100.00
2023-02-24T00:59:53.547Z,100.00
2023-02-24T01:04:55.052Z,100.00
2023-02-24T01:09:57.552Z,100.00
2023-02-24T01:14:59.459Z,100.00
2023-02-24T01:20:16.352Z,100.00
2023-02-24T01:25:20.270Z,100.00
2023-02-24T01:30:21.883Z,100.00
2023-02-24T01:35:25.578Z,100.00
2023-02-24T01:40:27.580Z,100.00
2023-02-24T01:45:29.665Z,100.00
2023-02-24T01:50:35.597Z,100.00
2023-02-24T01:55:40.903Z,100.00
2023-02-24T02:00:46.936Z,100.00
2023-02-24T02:05:49.480Z,100.00
2023-02-24T02:10:58.620Z,100.00
2023-02-24T02:16:13.829Z,100.00
2023-02-24T02:21:32.969Z,100.00
2023-02-24T02:26:35.710Z,100.00
2023-02-24T02:31:51.069Z,100.00
2023-02-24T02:36:57.035Z,100.00
2023-02-24T02:42:14.941Z,100.00
2023-02-24T02:47:18.577Z,100.00
2023-02-24T02:52:27.092Z,100.00
2023-02-24T02:57:30.612Z,100.00
2023-02-24T03:02:38.298Z,100.00
2023-02-24T03:07:42.890Z,100.00
2023-02-24T03:12:47.469Z,100.00
2023-02-24T03:17:55.659Z,100.00
2023-02-24T03:23:07.325Z,100.00
2023-02-24T03:28:16.479Z,100.00
2023-02-24T03:33:23.843Z,100.00
2023-02-24T03:38:25.342Z,100.00
2023-02-24T03:43:30.155Z,100.00
2023-02-24T03:48:34.916Z,100.00
2023-02-24T03:53:55.025Z,100.00
2023-02-24T03:58:56.832Z,100.00
2023-02-24T04:04:12.040Z,100.00
2023-02-24T04:09:39.467Z,100.00
2023-02-24T04:14:57.917Z,100.00
2023-02-24T04:20:02.065Z,100.00
2023-02-24T04:25:13.654Z,100.00
2023-02-24T04:30:17.043Z,100.00
2023-02-24T04:35:21.066Z,100.00
2023-02-24T04:40:25.127Z,100.00
2023-02-24T04:45:28.289Z,100.00
2023-02-24T04:50:31.297Z,100.00
2023-02-24T04:55:40.144Z,100.00
2023-02-24T05:00:42.314Z,100.00
2023-02-24T05:05:51.985Z,100.00
2023-02-24T05:10:54.077Z,100.00
2023-02-24T05:15:58.191Z,100.00
2023-02-24T05:21:22.805Z,100.00
2023-02-24T05:26:25.667Z,100.00
2023-02-24T05:31:28.868Z,100.00
2023-02-24T05:36:32.225Z,100.00
2023-02-24T05:41:38.635Z,100.00
2023-02-24T05:46:41.297Z,100.00
2023-02-24T05:51:54.695Z,100.00
2023-02-24T05:57:00.571Z,100.00
2023-02-24T06:02:09.181Z,100.00
2023-02-24T06:07:22.094Z,100.00
2023-02-24T06:12:25.686Z,100.00
2023-02-24T06:17:27.942Z,100.00
2023-02-24T06:22:29.518Z,100.00
2023-02-24T06:27:31.034Z,100.00
2023-02-24T06:32:32.668Z,100.00
2023-02-24T06:37:35.820Z,100.00
2023-02-24T06:42:39.251Z,100.00
2023-02-24T06:47:42.817Z,100.00
2023-02-24T06:52:45.989Z,100.00
2023-02-24T06:57:50.056Z,100.00
2023-02-24T07:02:51.561Z,100.00
2023-02-24T07:07:53.104Z,100.00
2023-02-24T07:12:54.737Z,100.00
2023-02-24T07:17:56.317Z,100.00
2023-02-24T07:22:58.794Z,100.00
2023-02-24T07:28:03.775Z,100.00
2023-02-24T07:33:07.958Z,100.00
2023-02-24T07:38:09.632Z,100.00
2023-02-24T07:43:11.130Z,100.00
2023-02-24T07:48:14.583Z,100.00
2023-02-24T07:53:16.527Z,100.00
2023-02-24T07:58:18.622Z,100.00
2023-02-24T08:03:20.232Z,100.00
2023-02-24T08:08:25.622Z,100.00
2023-02-24T08:13:31.549Z,100.00
2023-02-24T08:18:37.338Z,100.00
2023-02-24T08:23:58.630Z,100.00
2023-02-24T08:29:00.134Z,100.00
2023-02-24T08:34:01.699Z,100.00
2023-02-24T08:39:03.879Z,100.00
2023-02-24T08:44:05.374Z,100.00
2023-02-24T08:49:10.894Z,100.00
2023-02-24T08:54:35.300Z,100.00
2023-02-24T09:00:06.672Z,100.00
2023-02-24T09:05:14.594Z,100.00
2023-02-24T09:10:19.604Z,100.00
2023-02-24T09:15:26.315Z,100.00
2023-02-24T09:20:27.864Z,100.00
2023-02-24T09:25:49.353Z,100.00
2023-02-24T09:30:55.434Z,98.50
2023-02-24T09:36:04.706Z,100.00
2023-02-24T09:41:56.218Z,99.69
2023-02-24T09:47:08.775Z,100.00
2023-02-24T09:52:19.179Z,100.00
2023-02-24T09:57:25.426Z,99.70
2023-02-24T10:02:28.272Z,99.84
2023-02-24T10:07:40.495Z,100.00
2023-02-24T10:12:42.380Z,100.00
2023-02-24T10:17:47.333Z,100.00
2023-02-24T10:22:55.148Z,100.00
2023-02-24T10:27:59.414Z,98.67
2023-02-24T10:33:05.413Z,96.14
2023-02-24T10:38:07.025Z,94.51
2023-02-24T10:43:10.600Z,93.69
2023-02-24T10:48:40.614Z,93.46
2023-02-24T10:53:46.318Z,95.96
2023-02-24T10:58:50.672Z,91.08
2023-02-24T11:04:01.694Z,92.69
2023-02-24T11:09:19.410Z,93.50
2023-02-24T11:14:39.693Z,92.87
2023-02-24T11:19:47.698Z,97.11
2023-02-24T11:24:50.439Z,95.49
2023-02-24T11:30:06.308Z,93.74
2023-02-24T11:35:12.813Z,90.76
2023-02-24T11:40:23.843Z,92.70
2023-02-24T11:45:43.429Z,87.52
2023-02-24T11:50:47.217Z,93.64
2023-02-24T11:55:51.590Z,91.99
2023-02-24T12:00:59.379Z,89.20
2023-02-24T12:06:12.870Z,90.33
2023-02-24T12:11:25.970Z,86.61
2023-02-24T12:16:33.741Z,87.63
2023-02-24T12:21:44.516Z,90.34
2023-02-24T12:27:07.959Z,87.40
2023-02-24T12:32:18.854Z,82.74
2023-02-24T12:37:38.735Z,85.10
2023-02-24T12:42:40.363Z,86.86
2023-02-24T12:47:50.934Z,86.67
2023-02-24T12:52:55.382Z,87.92
2023-02-24T12:58:04.910Z,85.07
2023-02-24T13:03:19.848Z,86.24
2023-02-24T13:08:32.888Z,84.61
2023-02-24T13:13:42.901Z,85.87
2023-02-24T13:18:45.368Z,87.40
2023-02-24T13:23:57.817Z,84.15
2023-02-24T13:29:09.327Z,84.98
2023-02-24T13:34:28.898Z,84.49
2023-02-24T13:45:58.079Z,84.75
2023-02-24T13:51:06.027Z,84.52
2023-02-24T13:56:10.884Z,82.99
2023-02-24T14:01:14.270Z,81.99
2023-02-24T14:06:26.491Z,83.94
2023-02-24T14:11:33.466Z,86.44
2023-02-24T14:16:53.703Z,90.58
2023-02-24T14:21:59.133Z,91.24
2023-02-24T14:27:04.733Z,95.31
2023-02-24T14:32:09.184Z,97.93
2023-02-24T14:37:16.506Z,98.63
2023-02-24T14:42:19.427Z,98.98
2023-02-24T14:47:22.633Z,99.38
2023-02-24T14:52:33.387Z,97.18
2023-02-24T14:57:40.538Z,96.58
2023-02-24T15:02:46.314Z,98.00
2023-02-24T15:07:51.958Z,96.88
2023-02-24T15:13:00.966Z,95.36
2023-02-24T15:18:08.596Z,96.68
2023-02-24T15:23:36.694Z,94.32
2023-02-24T15:28:38.432Z,88.39
2023-02-24T15:33:41.615Z,89.58
2023-02-24T15:38:44.239Z,85.87
2023-02-24T15:43:53.176Z,88.99
2023-02-24T15:48:56.426Z,89.61
2023-02-24T15:54:01.084Z,88.24
2023-02-24T15:59:03.376Z,89.93
2023-02-24T16:04:05.756Z,90.53
2023-02-24T16:09:08.082Z,93.91
2023-02-24T16:14:14.066Z,96.88
2023-02-24T16:19:15.952Z,100.00
2023-02-24T16:24:17.503Z,100.00
2023-02-24T16:29:19.249Z,96.81
2023-02-24T16:34:20.810Z,99.20
2023-02-24T16:39:23.787Z,100.00
2023-02-24T16:44:25.327Z,100.00
2023-02-24T16:49:26.912Z,100.00
2023-02-24T16:54:29.350Z,100.00
2023-02-24T16:59:31.069Z,100.00
2023-02-24T17:04:32.637Z,100.00
2023-02-24T17:09:34.255Z,100.00
2023-02-24T17:14:35.796Z,100.00
2023-02-24T17:19:37.799Z,100.00
2023-02-24T17:24:42.372Z,100.00
2023-02-24T17:29:43.880Z,100.00
2023-02-24T17:34:45.388Z,100.00
2023-02-24T17:39:46.920Z,100.00
2023-02-24T17:44:51.207Z,100.00
2023-02-24T17:49:52.778Z,100.00
2023-02-24T17:54:54.535Z,100.00
2023-02-24T17:59:56.453Z,100.00
2023-02-24T18:04:58.127Z,100.00
2023-02-24T18:09:59.851Z,100.00
2023-02-24T18:15:11.136Z,100.00
2023-02-24T18:20:15.318Z,100.00
2023-02-24T18:25:16.961Z,100.00
2023-02-24T18:30:18.699Z,100.00
2023-02-24T18:35:21.951Z,100.00
2023-02-24T18:40:31.001Z,100.00
2023-02-24T18:45:35.144Z,100.00
2023-02-24T18:50:36.943Z,100.00
2023-02-24T18:55:40.876Z,100.00
2023-02-24T19:00:43.489Z,100.00
2023-02-24T19:05:45.360Z,100.00
2023-02-24T19:10:49.979Z,100.00
2023-02-24T19:15:52.828Z,100.00
2023-02-24T19:20:54.553Z,100.00
2023-02-24T19:25:59.331Z,100.00
2023-02-24T19:31:00.957Z,100.00
2023-02-24T19:36:02.731Z,100.00
2023-02-24T19:41:29.416Z,100.00
2023-02-24T19:46:33.009Z,100.00
2023-02-24T19:51:35.003Z,100.00
2023-02-24T19:56:37.199Z,100.00
2023-02-24T20:01:40.108Z,100.00
2023-02-24T20:06:45.182Z,100.00
2023-02-24T20:11:48.001Z,100.00
2023-02-24T20:16:49.880Z,100.00
2023-02-24T20:21:51.702Z,100.00
2023-02-24T20:26:53.292Z,100.00
2023-02-24T20:31:54.906Z,100.00
2023-02-24T20:36:56.670Z,100.00
2023-02-24T20:41:58.302Z,100.00
2023-02-24T20:47:00.686Z,100.00
2023-02-24T20:52:02.179Z,100.00
2023-02-24T20:57:03.782Z,100.00
2023-02-24T21:02:05.455Z,100.00
2023-02-24T21:07:08.214Z,100.00
2023-02-24T21:12:09.858Z,100.00
2023-02-24T21:17:12.099Z,100.00
2023-02-24T21:22:13.646Z,100.00
2023-02-24T21:27:15.236Z,100.00
2023-02-24T21:32:17.058Z,100.00
2023-02-24T21:37:18.673Z,100.00
2023-02-24T21:42:22.202Z,100.00
2023-02-24T21:47:23.762Z,100.00
2023-02-24T21:52:25.254Z,100.00
2023-02-24T21:57:26.775Z,100.00
2023-02-24T22:02:28.250Z,100.00
2023-02-24T22:07:29.730Z,100.00
2023-02-24T22:12:31.227Z,100.00
2023-02-24T22:17:33.823Z,100.00
2023-02-24T22:22:38.922Z,99.28
2023-02-24T22:27:40.464Z,99.39
2023-02-24T22:32:42.066Z,99.72
2023-02-24T22:37:43.798Z,100.00
2023-02-24T22:42:45.362Z,100.00
2023-02-24T22:47:47.050Z,100.00
2023-02-24T22:52:49.187Z,100.00
2023-02-24T22:57:50.675Z,100.00
2023-02-24T23:02:52.151Z,100.00
2023-02-24T23:07:53.646Z,100.00
2023-02-24T23:12:55.442Z,100.00
2023-02-24T23:17:56.940Z,100.00
2023-02-24T23:22:58.654Z,100.00
2023-02-24T23:28:00.203Z,100.00
2023-02-24T23:33:03.037Z,100.00
2023-02-24T23:38:04.513Z,100.00
2023-02-24T23:43:06.153Z,100.00
2023-02-24T23:48:12.158Z,100.00
2023-02-24T23:53:13.742Z,100.00
2023-02-24T23:58:16.612Z,100.00
